Time;durP1;ratioP1;P1;durP2;ratioP2;P2;SDS_P1;SDS_P2;PMS_P1;PMS_P2;Temp;Humidity;BMP_temperature;BMP_pressure;BME280_temperature;BME280_humidity;BME280_pressure;Samples;Min_cycle;Max_cycle;Signal;HPM_P1;HPM_P2
2022/07/20 00:02:25;;;;;;;3.70;2.70;;;;;;;21.08;76.32;101353.28;5074571;28;20524;-67
2022/07/20 00:04:52;;;;;;;7.20;3.33;;;;;;;21.07;77.30;101350.88;5074819;28;20567;-69
2022/07/20 00:07:19;;;;;;;3.17;2.07;;;;;;;21.04;77.07;101343.31;5074860;28;20441;-67
2022/07/20 00:12:31;;;;;;;2.20;1.73;;;;;;;20.94;76.25;101352.91;5074689;28;20497;-68
2022/07/20 00:14:58;;;;;;;3.97;2.37;;;;;;;20.89;77.23;101347.63;5074632;28;20458;-68
2022/07/20 00:17:25;;;;;;;3.83;2.40;;;;;;;20.89;77.50;101355.91;5074396;28;20998;-67
2022/07/20 00:19:51;;;;;;;3.60;2.80;;;;;;;20.84;77.46;101356.97;5074549;28;20536;-68
2022/07/20 00:22:18;;;;;;;3.53;2.70;;;;;;;20.80;77.68;101356.06;5074532;28;20434;-68
2022/07/20 00:24:44;;;;;;;3.90;2.00;;;;;;;20.79;77.27;101351.72;5074198;28;20576;-73
2022/07/20 00:27:11;;;;;;;3.77;2.30;;;;;;;20.75;78.25;101350.00;5074634;28;20541;-73
2022/07/20 00:29:39;;;;;;;3.73;2.80;;;;;;;20.72;77.81;101359.78;5074540;28;20441;-70
2022/07/20 00:32:06;;;;;;;4.03;2.03;;;;;;;20.71;77.70;101355.41;5073041;28;21022;-71
2022/07/20 00:34:33;;;;;;;2.43;2.00;;;;;;;20.70;78.13;101350.28;5074045;28;20556;-72
2022/07/20 00:36:59;;;;;;;3.10;2.40;;;;;;;20.69;78.85;101349.47;5074195;28;20536;-71
2022/07/20 00:39:26;;;;;;;3.90;2.40;;;;;;;20.68;78.32;101349.84;5074004;28;20447;-71
2022/07/20 00:41:52;;;;;;;3.77;2.30;;;;;;;20.60;77.79;101346.06;5074231;28;20529;-72
2022/07/20 00:44:19;;;;;;;2.57;2.20;;;;;;;20.59;78.56;101341.72;5074112;28;20466;-71
2022/07/20 00:46:47;;;;;;;3.67;2.47;;;;;;;20.56;79.66;101343.22;5074136;28;20441;-71
2022/07/20 00:49:15;;;;;;;3.40;2.43;;;;;;;20.52;79.89;101327.75;5073745;28;20530;-71
2022/07/20 00:51:44;;;;;;;3.03;2.10;;;;;;;20.49;79.61;101332.00;5073668;28;20481;-71
2022/07/20 00:54:12;;;;;;;4.30;2.00;;;;;;;20.46;79.98;101329.94;5073558;28;20461;-71
2022/07/20 00:56:39;;;;;;;2.30;1.80;;;;;;;20.42;79.51;101329.81;5074219;28;20448;-71
2022/07/20 00:59:11;;;;;;;3.30;2.30;;;;;;;20.44;79.75;101328.66;5073880;28;20524;-71
2022/07/20 01:01:39;;;;;;;3.83;2.50;;;;;;;20.41;79.69;101325.47;5073894;28;20886;-71
2022/07/20 01:04:07;;;;;;;3.83;2.43;;;;;;;20.36;79.67;101328.47;5073379;28;20886;-71
2022/07/20 01:06:34;;;;;;;3.33;2.37;;;;;;;20.35;80.23;101317.78;5073512;28;20480;-71
2022/07/20 01:09:01;;;;;;;4.10;2.67;;;;;;;20.33;80.35;101312.66;5073382;28;20527;-71
2022/07/20 01:11:28;;;;;;;3.20;2.57;;;;;;;20.32;80.56;101310.22;5073729;28;20567;-71
2022/07/20 01:14:01;;;;;;;3.53;2.80;;;;;;;20.31;80.47;101303.13;5073559;28;20480;-72
2022/07/20 01:16:28;;;;;;;7.17;2.90;;;;;;;20.30;80.88;101310.59;5073446;28;20433;-71
2022/07/20 01:18:54;;;;;;;7.30;2.73;;;;;;;20.29;80.91;101308.19;5073547;28;20525;-71
2022/07/20 01:21:22;;;;;;;3.67;2.40;;;;;;;20.28;80.80;101310.16;5073587;28;20447;-71
2022/07/20 01:23:49;;;;;;;4.83;2.50;;;;;;;20.28;80.81;101312.09;5073285;28;20528;-70
2022/07/20 01:26:17;;;;;;;4.20;2.97;;;;;;;20.25;80.86;101310.03;5073513;28;20508;-69
2022/07/20 01:28:44;;;;;;;2.13;1.90;;;;;;;20.20;80.53;101313.03;5073682;28;20448;-68
2022/07/20 01:31:11;;;;;;;2.93;2.40;;;;;;;20.14;79.88;101313.28;5073101;28;20481;-69
2022/07/20 01:33:37;;;;;;;3.30;2.90;;;;;;;20.09;79.92;101307.22;5073521;28;20528;-68
2022/07/20 01:36:04;;;;;;;6.10;2.17;;;;;;;20.07;80.80;101313.06;5073396;28;20525;-70
2022/07/20 01:38:32;;;;;;;4.00;2.40;;;;;;;20.04;81.52;101316.50;5073369;28;20866;-68
2022/07/20 01:40:59;;;;;;;5.00;2.83;;;;;;;20.03;80.95;101308.63;5072973;28;20530;-70
2022/07/20 01:43:26;;;;;;;5.73;2.90;;;;;;;20.03;81.84;101314.91;5072981;28;20534;-68
2022/07/20 01:45:52;;;;;;;5.10;3.10;;;;;;;20.02;82.08;101313.31;5072793;28;21016;-69
2022/07/20 01:48:19;;;;;;;3.90;1.83;;;;;;;19.96;81.95;101308.38;5072950;28;20957;-68
2022/07/20 01:50:45;;;;;;;4.27;2.43;;;;;;;19.93;81.12;101309.91;5073100;28;20576;-69
2022/07/20 01:53:12;;;;;;;3.53;2.43;;;;;;;19.90;81.16;101305.09;5072906;28;20445;-70
2022/07/20 01:55:40;;;;;;;3.10;2.70;;;;;;;19.88;82.26;101304.66;5073087;28;20462;-69
2022/07/20 01:58:07;;;;;;;4.10;2.63;;;;;;;19.87;81.82;101303.81;5073124;28;20537;-70
2022/07/20 02:00:33;;;;;;;4.17;2.40;;;;;;;19.88;81.70;101308.19;5072848;28;20935;-70
2022/07/20 02:03:00;;;;;;;6.20;2.90;;;;;;;19.86;82.08;101304.97;5073081;28;20488;-71
2022/07/20 02:05:27;;;;;;;2.60;1.93;;;;;;;19.80;82.54;101300.88;5072672;28;20544;-70
2022/07/20 02:07:53;;;;;;;3.60;2.33;;;;;;;19.78;81.86;101308.66;5073012;28;20524;-71
2022/07/20 02:10:20;;;;;;;4.93;2.60;;;;;;;19.75;82.60;101292.88;5072657;28;20536;-69
2022/07/20 02:12:48;;;;;;;4.40;2.27;;;;;;;19.70;82.54;101295.84;5073120;28;20879;-70
2022/07/20 02:16:14;;;;;;;4.50;2.60;;;;;;;19.66;82.74;101292.19;5072652;28;20561;-71
2022/07/20 02:18:06;;;;;;;5.37;2.23;;;;;;;19.67;83.59;101288.28;5072445;28;20437;-70
2022/07/20 02:20:32;;;;;;;4.00;2.90;;;;;;;19.66;83.11;101289.44;5072975;28;20441;-70
2022/07/20 02:22:59;;;;;;;4.70;2.90;;;;;;;19.60;83.36;101297.09;5072621;28;20525;-72
2022/07/20 02:25:26;;;;;;;4.37;3.00;;;;;;;19.58;83.22;101291.13;5072399;28;20465;-70
2022/07/20 02:27:54;;;;;;;3.33;2.70;;;;;;;19.59;83.71;101291.94;5072561;28;20532;-70
2022/07/20 02:30:21;;;;;;;4.30;2.53;;;;;;;19.55;83.62;101291.00;5072801;28;20445;-70
2022/07/20 02:32:47;;;;;;;3.43;2.37;;;;;;;19.54;83.69;101295.72;5072850;28;20567;-70
2022/07/20 02:35:14;;;;;;;2.40;1.90;;;;;;;19.49;83.24;101292.41;5072744;28;20461;-71
2022/07/20 02:37:40;;;;;;;5.23;2.90;;;;;;;19.50;83.93;101285.75;5072744;28;20886;-70
2022/07/20 02:40:09;;;;;;;3.43;2.90;;;;;;;19.48;84.09;101291.59;5072674;28;20477;-70
2022/07/20 02:42:35;;;;;;;8.00;2.70;;;;;;;19.47;84.53;101283.69;5072435;28;20947;-70
2022/07/20 02:45:04;;;;;;;2.97;2.67;;;;;;;19.42;85.06;101293.75;5072581;28;20493;-70
2022/07/20 02:47:30;;;;;;;3.77;2.53;;;;;;;19.40;85.04;101289.75;5072419;28;20477;-70
2022/07/20 02:49:57;;;;;;;3.97;2.63;;;;;;;19.38;84.88;101289.28;5072676;28;20441;-70
2022/07/20 02:52:24;;;;;;;4.93;2.60;;;;;;;19.33;84.86;101279.31;5072599;28;20575;-70
2022/07/20 02:54:50;;;;;;;4.87;2.80;;;;;;;19.32;84.43;101280.47;5072532;28;20493;-70
2022/07/20 02:57:17;;;;;;;4.77;2.80;;;;;;;19.31;85.14;101280.84;5075875;28;20524;-70
2022/07/20 02:59:43;;;;;;;4.30;2.67;;;;;;;19.30;85.93;101288.28;5076346;28;20881;-70
2022/07/20 03:02:11;;;;;;;4.23;2.03;;;;;;;19.30;85.42;101281.94;5076155;28;20444;-70
2022/07/20 03:04:38;;;;;;;3.93;2.73;;;;;;;19.28;84.93;101279.56;5075702;28;20994;-70
2022/07/20 03:07:05;;;;;;;3.47;2.67;;;;;;;19.26;84.60;101275.56;5076055;28;20516;-71
2022/07/20 03:09:32;;;;;;;5.33;3.23;;;;;;;19.23;84.64;101276.25;5075749;28;20449;-70
2022/07/20 03:11:58;;;;;;;11.00;3.70;;;;;;;19.25;85.06;101284.94;5075963;28;20574;-70
2022/07/20 03:14:25;;;;;;;5.00;2.87;;;;;;;19.26;85.10;101287.34;5075525;28;21029;-70
2022/07/20 03:16:51;;;;;;;4.80;3.00;;;;;;;19.21;85.68;101290.31;5075895;28;20524;-71
2022/07/20 03:19:19;;;;;;;4.60;3.30;;;;;;;19.20;85.44;101285.97;5075791;28;20527;-70
2022/07/20 03:21:46;;;;;;;4.23;2.73;;;;;;;19.21;86.04;101293.06;5075535;28;20491;-70
2022/07/20 03:26:53;;;;;;;4.00;2.93;;;;;;;19.19;84.71;101289.06;5074347;28;20834;-72
2022/07/20 03:29:20;;;;;;;5.10;2.90;;;;;;;19.21;85.96;101289.50;5075637;28;20536;-70
2022/07/20 03:31:46;;;;;;;4.50;2.80;;;;;;;19.18;85.96;101295.72;5075262;28;20584;-69
2022/07/20 03:34:13;;;;;;;4.13;2.80;;;;;;;19.15;85.48;101294.44;5075193;28;20465;-70
2022/07/20 03:36:41;;;;;;;4.77;2.63;;;;;;;19.12;86.12;101287.69;5075472;28;20533;-69
2022/07/20 03:39:07;;;;;;;6.00;2.80;;;;;;;19.14;85.58;101292.84;5075485;28;20872;-71
2022/07/20 03:41:34;;;;;;;2.90;2.60;;;;;;;19.12;85.70;101297.84;5075641;28;20536;-69
2022/07/20 03:44:00;;;;;;;3.90;2.50;;;;;;;19.15;85.40;101305.41;5074917;28;20465;-69
2022/07/20 03:46:27;;;;;;;6.37;2.90;;;;;;;19.18;85.05;101303.94;5075232;28;20927;-69
2022/07/20 03:48:54;;;;;;;6.70;2.10;;;;;;;19.21;85.18;101312.28;5075250;28;20490;-71
2022/07/20 03:51:20;;;;;;;2.70;2.40;;;;;;;19.24;85.71;101316.31;5075108;28;20568;-69
2022/07/20 03:53:48;;;;;;;4.60;3.00;;;;;;;19.24;85.93;101311.59;5075249;28;20536;-70
2022/07/20 03:56:15;;;;;;;4.83;3.43;;;;;;;19.24;85.68;101319.84;5074849;28;20817;-69
2022/07/20 03:58:42;;;;;;;5.97;3.20;;;;;;;19.24;86.35;101319.03;5074800;28;20477;-69
2022/07/20 04:01:08;;;;;;;5.83;3.17;;;;;;;19.23;85.83;101321.00;5075038;28;20468;-70
2022/07/20 04:03:35;;;;;;;7.00;3.27;;;;;;;19.26;86.21;101319.53;5074694;28;20524;-69
2022/07/20 04:06:02;;;;;;;5.20;2.80;;;;;;;19.29;86.27;101319.63;5074611;28;20461;-70
2022/07/20 04:08:29;;;;;;;3.23;2.60;;;;;;;19.33;86.61;101320.53;5074774;28;20428;-69
2022/07/20 04:10:57;;;;;;;4.90;3.10;;;;;;;19.35;86.52;101320.22;5074497;28;20450;-71
2022/07/20 04:13:24;;;;;;;5.50;2.87;;;;;;;19.38;86.38;101317.56;5074753;28;20456;-69
2022/07/20 04:15:50;;;;;;;5.57;3.00;;;;;;;19.41;85.93;101311.38;5074365;28;20912;-69
2022/07/20 04:18:17;;;;;;;2.70;2.23;;;;;;;19.45;86.35;101314.25;5074390;28;20528;-69
2022/07/20 04:20:44;;;;;;;9.17;3.27;;;;;;;19.49;87.27;101320.66;5074889;28;20441;-69
2022/07/20 04:23:11;;;;;;;3.97;2.20;;;;;;;19.54;87.98;101316.91;5074560;28;20433;-70
2022/07/20 04:25:38;;;;;;;4.40;2.57;;;;;;;19.56;88.03;101317.34;5074143;28;20473;-69
2022/07/20 04:28:06;;;;;;;13.47;3.03;;;;;;;19.60;87.71;101315.50;5074464;28;20488;-69
2022/07/20 04:30:35;;;;;;;4.20;2.63;;;;;;;19.65;88.33;101312.56;5074486;28;20441;-69
2022/07/20 04:33:02;;;;;;;4.40;3.03;;;;;;;19.72;88.00;101312.78;5074005;28;20485;-70
2022/07/20 04:35:29;;;;;;;4.30;2.50;;;;;;;19.73;88.45;101317.13;5074304;28;20548;-70
2022/07/20 04:37:55;;;;;;;9.87;3.07;;;;;;;19.78;88.92;101322.38;5074448;28;20441;-73
2022/07/20 04:40:22;;;;;;;4.00;2.70;;;;;;;19.83;89.05;101327.69;5074332;28;20515;-72
2022/07/20 04:42:48;;;;;;;3.77;2.67;;;;;;;19.89;89.03;101336.50;5074837;28;20477;-71
2022/07/20 04:45:17;;;;;;;4.20;2.97;;;;;;;19.94;88.50;101330.75;5074297;28;20497;-68
2022/07/20 04:47:43;;;;;;;3.23;2.63;;;;;;;19.97;88.87;101321.81;5074303;28;20524;-68
2022/07/20 04:50:10;;;;;;;3.83;2.97;;;;;;;20.04;88.68;101322.00;5074962;28;20529;-68
2022/07/20 04:52:37;;;;;;;4.33;3.03;;;;;;;20.12;88.14;101318.31;5073996;28;20540;-68
2022/07/20 04:55:04;;;;;;;4.63;3.20;;;;;;;20.17;87.03;101320.03;5073984;28;20548;-69
2022/07/20 04:57:31;;;;;;;5.10;3.40;;;;;;;20.24;86.66;101324.97;5073781;28;20445;-68
2022/07/20 04:59:58;;;;;;;5.67;3.40;;;;;;;20.31;85.16;101320.44;5073819;28;20524;-69
2022/07/20 05:02:26;;;;;;;3.67;3.20;;;;;;;20.42;84.32;101323.53;5073742;28;20481;-66
2022/07/20 05:04:52;;;;;;;5.70;3.07;;;;;;;20.50;83.80;101316.31;5073732;28;20997;-68
2022/07/20 05:07:19;;;;;;;7.80;3.77;;;;;;;20.61;82.82;101320.13;5073845;28;20492;-69
2022/07/20 05:09:45;;;;;;;4.77;3.27;;;;;;;20.72;82.15;101317.66;5073693;28;20527;-65
2022/07/20 05:12:12;;;;;;;3.10;2.33;;;;;;;20.85;81.29;101322.78;5073407;28;20496;-69
2022/07/20 05:14:39;;;;;;;11.10;3.27;;;;;;;20.98;79.77;101322.69;5073664;28;20892;-68
2022/07/20 05:17:05;;;;;;;4.13;2.70;;;;;;;21.12;77.52;101325.84;5073605;28;20465;-68
2022/07/20 05:19:33;;;;;;;6.07;3.20;;;;;;;21.24;77.48;101322.97;5073078;28;20528;-68
2022/07/20 05:22:00;;;;;;;2.80;2.30;;;;;;;21.39;78.20;101327.72;5073580;28;20437;-69
2022/07/20 05:24:27;;;;;;;6.80;3.53;;;;;;;21.49;78.34;101320.06;5073086;28;20479;-67
2022/07/20 05:26:54;;;;;;;4.13;3.20;;;;;;;21.60;76.63;101326.63;5073561;28;20450;-69
2022/07/20 05:29:21;;;;;;;5.67;3.70;;;;;;;21.73;76.11;101335.59;5073098;28;20440;-67
2022/07/20 05:31:48;;;;;;;5.57;3.80;;;;;;;21.85;75.13;101329.97;5073350;28;20569;-68
2022/07/20 05:34:14;;;;;;;4.90;3.30;;;;;;;21.97;74.74;101334.59;5073366;28;20483;-69
2022/07/20 05:36:42;;;;;;;6.07;2.90;;;;;;;22.11;74.32;101332.13;5073038;28;20532;-69
2022/07/20 05:39:11;;;;;;;8.47;4.00;;;;;;;22.22;71.64;101335.94;5073284;28;20473;-69
2022/07/20 05:41:38;;;;;;;4.97;3.43;;;;;;;22.35;70.40;101334.63;5073374;28;20446;-70
2022/07/20 05:44:04;;;;;;;4.67;2.90;;;;;;;22.49;68.95;101333.31;5073145;28;20461;-74
2022/07/20 05:46:31;;;;;;;4.70;3.50;;;;;;;22.62;68.32;101335.59;5072999;28;20484;-70
2022/07/20 05:48:58;;;;;;;3.87;3.10;;;;;;;22.75;68.42;101338.97;5073256;28;20484;-71
2022/07/20 05:51:24;;;;;;;4.53;3.00;;;;;;;22.89;67.54;101344.81;5072932;28;20477;-70
2022/07/20 05:53:52;;;;;;;4.20;2.83;;;;;;;23.06;66.99;101338.00;5072807;28;20495;-71
2022/07/20 05:56:19;;;;;;;5.77;3.30;;;;;;;23.18;66.65;101348.09;5073326;28;20528;-71
2022/07/20 05:58:45;;;;;;;5.67;2.70;;;;;;;23.34;65.34;101342.44;5072902;28;21010;-71
2022/07/20 06:01:12;;;;;;;2.50;2.30;;;;;;;23.53;64.28;101347.09;5073072;28;20537;-71
2022/07/20 06:03:39;;;;;;;5.13;3.50;;;;;;;23.71;62.74;101352.94;5073380;28;20464;-71
2022/07/20 06:06:06;;;;;;;3.93;2.90;;;;;;;23.89;61.21;101346.47;5072776;28;20445;-71
2022/07/20 06:08:32;;;;;;;5.30;3.33;;;;;;;24.07;60.22;101345.94;5072867;28;20493;-71
2022/07/20 06:11:00;;;;;;;4.00;2.60;;;;;;;24.23;60.11;101348.53;5072762;28;20939;-70
2022/07/20 06:13:27;;;;;;;5.13;3.07;;;;;;;24.41;59.30;101342.06;5072897;28;20572;-70
2022/07/20 06:15:53;;;;;;;5.10;2.47;;;;;;;24.57;58.32;101346.59;5072805;28;20473;-72
2022/07/20 06:18:20;;;;;;;3.00;2.50;;;;;;;24.72;57.05;101339.25;5072651;28;20536;-71
2022/07/20 06:20:47;;;;;;;6.40;2.83;;;;;;;24.83;58.60;101348.47;5072905;28;21024;-70
2022/07/20 06:23:13;;;;;;;5.17;3.50;;;;;;;24.94;58.29;101351.34;5072865;28;20528;-70
2022/07/20 06:25:40;;;;;;;7.97;3.00;;;;;;;25.01;58.47;101351.41;5072560;28;20560;-69
2022/07/20 06:28:08;;;;;;;3.83;2.47;;;;;;;25.07;58.32;101356.25;5072925;28;20429;-70
2022/07/20 06:30:35;;;;;;;4.17;2.63;;;;;;;25.13;58.63;101365.81;5074089;28;20469;-68
2022/07/20 06:33:01;;;;;;;5.70;3.53;;;;;;;25.20;60.03;101362.34;5076536;28;20918;-71
2022/07/20 06:35:28;;;;;;;4.40;3.17;;;;;;;25.28;60.82;101363.19;5076229;28;20469;-69
2022/07/20 06:37:54;;;;;;;4.40;3.03;;;;;;;25.36;57.54;101368.41;5076338;28;20445;-70
2022/07/20 06:40:21;;;;;;;6.60;3.17;;;;;;;25.46;57.55;101369.72;5076558;28;20520;-70
2022/07/20 06:42:48;;;;;;;11.77;3.53;;;;;;;25.53;57.42;101380.06;5076561;28;20465;-68
2022/07/20 06:45:17;;;;;;;3.30;2.63;;;;;;;25.61;57.31;101378.94;5076213;28;20528;-70
2022/07/20 06:47:43;;;;;;;13.13;2.90;;;;;;;25.66;57.01;101373.03;5076570;28;20536;-70
2022/07/20 06:50:10;;;;;;;6.03;3.07;;;;;;;25.79;55.46;101377.09;5076531;28;20508;-70
2022/07/20 06:52:38;;;;;;;4.30;2.77;;;;;;;25.87;55.26;101380.75;5076893;28;20523;-69
2022/07/20 06:55:05;;;;;;;3.53;2.60;;;;;;;25.96;55.06;101381.19;5076175;28;20506;-71
2022/07/20 06:57:32;;;;;;;3.67;2.90;;;;;;;26.09;51.42;101382.47;5075929;28;20532;-70
2022/07/20 06:59:58;;;;;;;6.57;3.60;;;;;;;26.38;50.18;101380.63;5076503;28;20867;-73
2022/07/20 07:02:26;;;;;;;6.97;3.03;;;;;;;26.55;50.35;101378.34;5076171;28;20453;-71
2022/07/20 07:04:53;;;;;;;4.03;2.70;;;;;;;26.64;54.04;101382.34;5076086;28;20536;-73
2022/07/20 07:07:20;;;;;;;3.10;2.30;;;;;;;26.67;54.41;101380.78;5076243;28;20441;-71
2022/07/20 07:09:46;;;;;;;5.40;3.10;;;;;;;26.72;54.95;101376.81;5076257;28;20869;-72
2022/07/20 07:12:13;;;;;;;4.80;3.03;;;;;;;26.77;53.65;101379.22;5075756;28;20441;-70
2022/07/20 07:14:39;;;;;;;5.20;3.70;;;;;;;26.82;53.12;101376.84;5076034;28;20501;-71
2022/07/20 07:17:06;;;;;;;4.10;2.50;;;;;;;26.91;53.68;101380.03;5076259;28;20437;-72
2022/07/20 07:19:34;;;;;;;4.53;3.03;;;;;;;26.97;54.45;101379.66;5076013;28;20441;-70
2022/07/20 07:22:01;;;;;;;3.70;2.60;;;;;;;27.15;48.83;101377.75;5075848;28;20448;-71
2022/07/20 07:24:27;;;;;;;6.47;2.47;;;;;;;27.27;49.54;101377.38;5075573;28;20468;-70
2022/07/20 07:26:54;;;;;;;3.87;2.57;;;;;;;27.32;49.96;101376.97;5075736;28;20450;-71
2022/07/20 07:29:20;;;;;;;3.90;2.60;;;;;;;27.35;50.13;101376.16;5075754;28;20532;-70
2022/07/20 07:31:47;;;;;;;2.90;2.20;;;;;;;27.39;51.23;101371.38;5075670;28;20528;-71
2022/07/20 07:34:13;;;;;;;4.63;2.73;;;;;;;27.44;52.07;101377.75;5075409;28;20575;-69
2022/07/20 07:36:41;;;;;;;2.67;2.47;;;;;;;27.47;50.71;101372.19;5075244;28;20456;-70
2022/07/20 07:39:08;;;;;;;3.77;2.77;;;;;;;27.49;50.81;101378.13;5075412;28;20538;-71
2022/07/20 07:41:35;;;;;;;4.27;3.07;;;;;;;27.56;50.66;101375.34;5074888;28;20528;-70
2022/07/20 07:44:02;;;;;;;4.20;3.13;;;;;;;27.62;50.17;101370.97;5075350;28;20540;-69
2022/07/20 07:46:28;;;;;;;14.63;2.93;;;;;;;27.76;49.67;101383.31;5075322;28;20443;-69
2022/07/20 07:48:55;;;;;;;4.03;3.10;;;;;;;27.82;50.09;101388.09;5075275;28;20441;-71
2022/07/20 07:51:22;;;;;;;3.60;2.97;;;;;;;27.91;46.42;101374.56;5075347;28;20449;-70
2022/07/20 07:53:50;;;;;;;5.90;3.63;;;;;;;28.08;46.65;101372.13;5074844;28;20499;-71
2022/07/20 07:56:16;;;;;;;2.80;2.43;;;;;;;28.20;47.46;101368.09;5074914;28;20451;-69
2022/07/20 07:58:43;;;;;;;4.90;3.47;;;;;;;28.32;47.61;101371.25;5075116;28;20503;-70
2022/07/20 08:01:10;;;;;;;5.50;2.87;;;;;;;28.54;45.40;101366.41;5075127;28;20525;-69
2022/07/20 08:03:36;;;;;;;4.03;3.00;;;;;;;28.69;46.32;101372.72;5074630;28;20953;-70
2022/07/20 08:06:04;;;;;;;3.73;2.43;;;;;;;28.74;46.68;101368.72;5074796;28;20552;-70
2022/07/20 08:08:32;;;;;;;4.17;2.70;;;;;;;28.79;46.33;101371.06;5074874;28;20484;-69
2022/07/20 08:11:00;;;;;;;3.90;2.70;;;;;;;28.88;46.52;101368.63;5074692;28;21029;-69
2022/07/20 08:13:27;;;;;;;3.87;3.20;;;;;;;28.94;46.31;101371.78;5074497;28;21018;-70
2022/07/20 08:15:54;;;;;;;6.70;3.17;;;;;;;29.08;44.33;101377.28;5074673;28;20449;-71
2022/07/20 08:18:21;;;;;;;3.00;2.63;;;;;;;29.17;45.21;101385.97;5074776;28;20806;-69
2022/07/20 08:20:48;;;;;;;3.80;2.70;;;;;;;29.37;44.34;101378.66;5074675;28;20544;-70
2022/07/20 08:23:15;;;;;;;2.80;2.47;;;;;;;29.61;43.30;101384.47;5074743;28;20528;-70
2022/07/20 08:25:43;;;;;;;5.20;3.40;;;;;;;29.74;43.49;101385.53;5074331;28;21012;-69
2022/07/20 08:28:12;;;;;;;3.67;2.70;;;;;;;29.80;44.14;101386.69;5074472;28;20444;-70
2022/07/20 08:30:40;;;;;;;4.37;2.50;;;;;;;29.85;43.26;101386.25;5074624;28;20452;-69
2022/07/20 08:33:06;;;;;;;5.50;3.50;;;;;;;30.00;43.61;101375.69;5073988;28;20572;-70
2022/07/20 08:35:33;;;;;;;5.23;3.03;;;;;;;30.08;43.73;101379.22;5074313;28;20516;-69
2022/07/20 08:38:00;;;;;;;3.23;2.47;;;;;;;30.11;44.48;101381.19;5074439;28;20520;-70
2022/07/20 08:40:27;;;;;;;3.00;2.67;;;;;;;30.15;44.79;101387.56;5074352;28;20469;-69
2022/07/20 08:42:54;;;;;;;4.13;2.90;;;;;;;30.15;44.51;101376.38;5074254;28;20524;-71
2022/07/20 08:45:22;;;;;;;3.73;2.70;;;;;;;30.24;44.69;101367.47;5074117;28;20540;-70
2022/07/20 08:47:51;;;;;;;3.30;2.60;;;;;;;30.35;43.57;101379.31;5073818;28;20507;-69
2022/07/20 08:50:22;;;;;;;11.80;3.13;;;;;;;30.43;43.75;101368.84;5074193;28;20533;-69
2022/07/20 08:52:50;;;;;;;2.43;2.03;;;;;;;30.51;43.53;101367.56;5073131;28;20501;-70
2022/07/20 08:55:16;;;;;;;10.47;2.90;;;;;;;30.56;44.17;101367.09;5073981;28;20552;-70
2022/07/20 08:57:43;;;;;;;4.60;2.70;;;;;;;30.62;43.23;101366.19;5073638;28;20481;-70
2022/07/20 09:00:11;;;;;;;3.20;2.80;;;;;;;30.66;43.69;101374.53;5073560;28;20939;-71
2022/07/20 09:02:51;;;;;;;2.20;1.97;;;;;;;30.72;43.41;101364.47;5073476;28;20823;-70
2022/07/20 09:05:18;;;;;;;3.93;2.50;;;;;;;30.80;43.00;101371.56;5073741;28;20543;-70
2022/07/20 09:07:47;;;;;;;7.60;2.70;;;;;;;30.87;43.68;101368.66;5073813;28;20446;-72
2022/07/20 09:10:15;;;;;;;4.03;2.20;;;;;;;30.90;42.81;101372.59;5073505;28;20814;-69
2022/07/20 09:12:50;;;;;;;4.27;2.20;;;;;;;30.94;42.34;101369.75;5074702;28;20441;-74
2022/07/20 09:15:26;;;;;;;2.53;2.20;;;;;;;31.01;42.13;101370.47;5073769;28;20472;-70
2022/07/20 09:18:02;;;;;;;3.60;2.50;;;;;;;31.00;42.38;101366.09;5073940;28;20434;-72
2022/07/20 09:20:30;;;;;;;3.00;2.07;;;;;;;31.08;43.17;101366.78;5073806;28;20417;-70
2022/07/20 09:23:01;;;;;;;4.03;2.60;;;;;;;31.20;41.51;101368.97;5073576;28;20563;-72
2022/07/20 09:25:28;;;;;;;3.73;3.07;;;;;;;31.27;41.49;101368.84;5073160;28;20832;-71
2022/07/20 09:27:55;;;;;;;2.50;2.00;;;;;;;31.42;38.84;101360.25;5073489;28;20532;-71
2022/07/20 09:30:22;;;;;;;4.93;1.90;;;;;;;31.56;39.96;101363.56;5073568;28;20441;-70
2022/07/20 09:32:58;;;;;;;2.80;2.03;;;;;;;31.72;36.85;101360.09;5073357;28;20528;-71
2022/07/20 09:35:29;;;;;;;9.13;2.10;;;;;;;32.09;36.73;101361.81;5073358;28;20461;-71
2022/07/20 09:37:57;;;;;;;2.77;1.93;;;;;;;32.27;38.42;101374.69;5073583;28;20457;-71
2022/07/20 09:40:24;;;;;;;2.90;2.00;;;;;;;32.28;37.12;101365.06;5073481;28;20528;-71
2022/07/20 09:42:50;;;;;;;3.07;2.30;;;;;;;32.33;37.50;101367.34;5073350;28;20441;-71
2022/07/20 09:45:25;;;;;;;3.60;1.97;;;;;;;32.34;38.14;101363.31;5073443;28;20493;-70
2022/07/20 09:48:01;;;;;;;3.37;2.47;;;;;;;32.47;37.14;101360.69;5073083;28;20516;-70
2022/07/20 09:50:30;;;;;;;3.87;2.80;;;;;;;32.70;35.66;101363.38;5073332;28;20448;-70
2022/07/20 09:52:57;;;;;;;2.03;1.83;;;;;;;32.82;35.16;101354.25;5073273;28;20435;-70
2022/07/20 09:55:25;;;;;;;3.00;1.90;;;;;;;32.93;35.48;101342.81;5073204;28;20457;-71
2022/07/20 09:57:52;;;;;;;3.17;2.43;;;;;;;32.99;35.55;101357.13;5073241;28;20480;-70
2022/07/20 10:00:19;;;;;;;5.37;2.47;;;;;;;33.08;33.85;101344.06;5072933;28;21013;-70
2022/07/20 10:02:47;;;;;;;4.30;2.23;;;;;;;33.29;33.81;101353.97;5073387;28;20449;-71
2022/07/20 10:05:15;;;;;;;3.40;2.27;;;;;;;33.34;35.65;101353.44;5075454;28;20516;-70
2022/07/20 10:07:44;;;;;;;1.37;1.00;;;;;;;33.34;35.80;101347.81;5077356;28;20537;-71
2022/07/20 10:10:11;;;;;;;4.60;2.10;;;;;;;33.35;36.35;101349.41;5077157;28;20528;-70
2022/07/20 10:12:39;;;;;;;3.10;1.70;;;;;;;33.36;36.22;101353.78;5077225;28;20464;-70
2022/07/20 10:15:09;;;;;;;1.50;1.40;;;;;;;33.34;35.54;101349.84;5077141;28;20481;-70
2022/07/20 10:17:36;;;;;;;4.13;2.13;;;;;;;33.37;35.66;101346.13;5077199;28;20469;-70
2022/07/20 10:20:03;;;;;;;3.23;2.13;;;;;;;33.42;34.91;101351.22;5076995;28;20460;-70
2022/07/20 10:22:31;;;;;;;3.30;1.60;;;;;;;33.44;34.87;101348.03;5077094;28;20483;-70
2022/07/20 10:25:17;;;;;;;4.73;2.13;;;;;;;33.47;34.83;101338.69;5076564;28;20557;-70
2022/07/20 10:27:44;;;;;;;4.13;1.80;;;;;;;33.45;35.85;101335.53;5077021;28;20521;-71
2022/07/20 10:30:18;;;;;;;2.07;1.70;;;;;;;33.48;33.69;101331.84;5076868;28;20472;-70
2022/07/20 10:32:56;;;;;;;2.90;1.67;;;;;;;33.57;34.11;101341.22;5076867;28;20515;-70
2022/07/20 10:35:27;;;;;;;1.80;1.40;;;;;;;33.67;34.82;101330.94;5076588;28;20574;-71
2022/07/20 10:37:55;;;;;;;2.57;2.00;;;;;;;33.72;33.81;101335.22;5076708;28;20441;-71
2022/07/20 10:40:25;;;;;;;2.20;1.63;;;;;;;33.88;33.46;101333.16;5076637;28;20524;-70
2022/07/20 10:42:54;;;;;;;1.87;1.67;;;;;;;33.95;33.26;101326.53;5076852;28;20445;-71
2022/07/20 10:45:30;;;;;;;1.80;1.50;;;;;;;34.07;32.55;101325.03;5076494;28;20540;-70
2022/07/20 10:48:04;;;;;;;4.00;1.80;;;;;;;34.12;33.46;101319.63;5076915;28;20528;-71
2022/07/20 10:50:33;;;;;;;7.83;2.00;;;;;;;34.17;32.72;101314.69;5076524;28;20512;-70
2022/07/20 10:53:20;;;;;;;2.20;2.00;;;;;;;34.32;32.96;101316.63;5076884;28;20543;-71
2022/07/20 10:55:51;;;;;;;2.20;1.70;;;;;;;34.53;33.18;101311.59;5076175;28;20829;-70
2022/07/20 10:58:21;;;;;;;6.10;2.30;;;;;;;34.63;30.77;101318.94;5076087;28;20512;-70
2022/07/20 11:00:50;;;;;;;7.63;2.00;;;;;;;34.51;31.52;101297.22;5076143;28;20876;-71
2022/07/20 11:03:20;;;;;;;2.30;1.80;;;;;;;34.74;31.63;101313.75;5076235;28;20451;-70
2022/07/20 11:05:49;;;;;;;3.13;2.33;;;;;;;35.00;31.93;101310.94;5076035;28;20552;-71
2022/07/20 11:08:16;;;;;;;3.43;2.00;;;;;;;35.29;31.90;101314.38;5076070;28;20472;-71
2022/07/20 11:10:43;;;;;;;2.70;2.03;;;;;;;35.43;30.75;101313.09;5076712;28;20471;-70
2022/07/20 11:13:13;;;;;;;2.60;1.70;;;;;;;35.62;29.55;101314.06;5076064;28;20520;-70
2022/07/20 11:15:42;;;;;;;3.67;2.67;;;;;;;35.81;27.61;101304.47;5075323;28;20442;-70
2022/07/20 11:18:10;;;;;;;2.57;1.67;;;;;;;35.94;27.95;101307.22;5075739;28;20433;-72
2022/07/20 11:20:46;;;;;;;2.70;1.77;;;;;;;36.04;30.79;101311.72;5075624;28;20445;-75
2022/07/20 11:23:13;;;;;;;5.97;2.20;;;;;;;36.23;30.86;101306.97;5075862;28;20532;-73
2022/07/20 11:25:49;;;;;;;2.10;1.73;;;;;;;36.54;26.26;101303.38;5075361;28;20513;-74
2022/07/20 11:28:20;;;;;;;2.17;1.70;;;;;;;36.82;28.82;101302.22;5075923;28;20440;-71
2022/07/20 11:30:48;;;;;;;2.13;1.93;;;;;;;37.20;28.34;101298.25;5075893;28;20800;-73
2022/07/20 11:33:14;;;;;;;2.13;1.90;;;;;;;37.74;27.67;101298.75;5075377;28;20962;-73